Aérodrome :
LOGIN :

S'inscrire | Disclaimer

   EN    FR    IT 

 










Légende :    VFR   VFR Marginal   IFR   IFR Intensif   IFR Très Intensif
Visi : 
Plafond : 
>= 8 km
>= 3000ft
5 à 8 km
1000 à 3000 ft
1500m à 5 km
500 à 1000 ft
800 à 1500m
200 à 500 ft
< 800m
< 200 ft
Symboles :   Orages  Brouillard  Fortes neiges  Fortes précipitations  Vent > 20 kt
SIGMETs :   Divers  Orages  Givrage  Turbulence  Onde Orograph.  Cendres Volcan.






- Altitude de l'aérodrome : 587 ft
- Code IATA : XCR


LFOK - Chalons Vatry

DERNIER METAR :
  • 260530Z AUTO 26005KT 9999 OVC008 10/10 Q1023 TEMPO 0300 FG VV///

METARs EXPIRÉS :
  • 260500Z AUTO 26006KT 9999 OVC007 10/10 Q1022 TEMPO 0300 FG VV///
  • 260430Z AUTO 27007KT 9999 OVC006 10/10 Q1022 TEMPO 0300 FG VV///
  • 260400Z AUTO 25005KT 4400 BR BKN002 OVC008 10/10 Q1022 TEMPO 0300 FG VV///
  • 260330Z AUTO 24006KT 1900 BR VV/// 10/10 Q1022 TEMPO 0300 FG

TAF TAF LFOK
Valide du 26 à 06h jusqu'au 27 à 06h UTC


260500Z 2606/2706 21008KT 2000 BR SCT005 SCT030
PROB40 2606/2609 0300 FG VV///
BECMG 2609/2611 8000 NSW OVC006
BECMG 2611/2614 BKN015
PROB40 2619/2624 BKN010



MET'MAP, la Météo Aéronautique d'un coup d'oeil ! - Copyright ORBIFLY Décembre 2007 - Disclaimer

ORBIFLY MET'MAP TEAM :

Programmation & Développement : Alexandra Zaïnal
Sur une idée originale de : Baudouin d'Aumeries
Assistance à la programmation : Marc-Olivier Méhu
Soutien technique & logistique : Manuel Goepfert

Contact : metmap@orbifly.com




SOURCES & CREDITS :

   NOAA